createdAt,value
2018-10-11T00:01:48.660Z,19.10
2018-10-11T00:04:16.990Z,17.47
2018-10-11T00:06:45.300Z,17.37
2018-10-11T00:09:13.635Z,18.47
2018-10-11T00:11:41.980Z,16.43
2018-10-11T00:14:10.330Z,17.00
2018-10-11T00:16:39.183Z,18.13
2018-10-11T00:19:07.580Z,19.53
2018-10-11T00:21:35.910Z,17.03
2018-10-11T00:24:04.249Z,16.37
2018-10-11T00:26:32.564Z,16.93
2018-10-11T00:29:00.895Z,15.80
2018-10-11T00:31:29.224Z,15.03
2018-10-11T00:33:57.572Z,16.87
2018-10-11T00:36:25.889Z,14.07
2018-10-11T00:38:54.220Z,12.67
2018-10-11T00:41:22.539Z,14.13
2018-10-11T00:43:50.915Z,15.60
2018-10-11T00:46:19.230Z,14.90
2018-10-11T00:48:47.565Z,15.83
2018-10-11T00:51:15.884Z,15.23
2018-10-11T00:53:44.279Z,16.07
2018-10-11T00:56:12.581Z,14.70
2018-10-11T00:58:40.923Z,16.53
2018-10-11T01:01:09.243Z,14.43
2018-10-11T01:03:37.566Z,15.77
2018-10-11T01:06:05.888Z,16.93
2018-10-11T01:08:34.231Z,15.93
2018-10-11T01:11:02.560Z,16.47
2018-10-11T01:13:30.896Z,15.90
2018-10-11T01:15:59.311Z,15.77
2018-10-11T01:18:27.640Z,11.73
2018-10-11T01:20:55.950Z,12.40
2018-10-11T01:23:24.276Z,9.53
2018-10-11T01:25:52.589Z,11.17
2018-10-11T01:28:20.919Z,11.53
2018-10-11T01:30:54.556Z,13.50
2018-10-11T01:33:22.914Z,15.33
2018-10-11T01:35:51.221Z,17.00
2018-10-11T01:38:19.800Z,13.17
2018-10-11T01:40:48.131Z,13.30
2018-10-11T01:43:16.471Z,15.43
2018-10-11T01:45:44.812Z,17.70
2018-10-11T01:48:13.139Z,21.00
2018-10-11T01:50:41.454Z,14.17
2018-10-11T01:53:09.808Z,14.37
2018-10-11T01:55:38.116Z,15.60
2018-10-11T01:58:06.451Z,16.23
2018-10-11T02:00:34.785Z,14.90
2018-10-11T02:03:03.119Z,12.20
2018-10-11T02:05:37.764Z,13.83
2018-10-11T02:08:06.800Z,12.30
2018-10-11T02:10:35.113Z,7.40
2018-10-11T02:13:03.449Z,11.63
2018-10-11T02:15:31.752Z,11.97
2018-10-11T02:18:00.101Z,7.10
2018-10-11T02:20:28.979Z,10.60
2018-10-11T02:22:57.468Z,9.40
2018-10-11T02:25:25.796Z,8.20
2018-10-11T02:27:54.111Z,5.60
2018-10-11T02:30:22.558Z,6.73
2018-10-11T02:32:50.865Z,6.70
2018-10-11T02:35:19.196Z,5.43
2018-10-11T02:37:47.500Z,6.00
2018-10-11T02:40:15.831Z,5.23
2018-10-11T02:42:44.138Z,5.43
2018-10-11T02:45:13.680Z,6.27
2018-10-11T02:47:41.995Z,9.07
2018-10-11T02:50:10.316Z,11.73
2018-10-11T02:52:38.726Z,16.23
2018-10-11T02:55:07.106Z,14.53
2018-10-11T02:57:46.872Z,16.60
2018-10-11T03:00:15.224Z,20.20
2018-10-11T03:02:44.532Z,19.00
2018-10-11T03:05:15.223Z,18.80
2018-10-11T03:07:44.276Z,22.23
2018-10-11T03:10:12.616Z,19.20
2018-10-11T03:12:40.929Z,19.67
2018-10-11T03:15:09.376Z,19.20
2018-10-11T03:17:37.688Z,20.57
2018-10-11T03:20:06.270Z,20.80
2018-10-11T03:22:34.595Z,20.87
2018-10-11T03:25:02.948Z,20.43
2018-10-11T03:27:31.272Z,21.73
2018-10-11T03:29:59.609Z,21.27
2018-10-11T03:32:28.004Z,22.43
2018-10-11T03:34:56.331Z,21.10
2018-10-11T03:37:24.638Z,19.93
2018-10-11T03:39:52.978Z,22.37
2018-10-11T03:42:21.287Z,20.90
2018-10-11T03:44:49.628Z,22.93
2018-10-11T03:47:17.941Z,22.00
2018-10-11T03:49:46.280Z,23.67
2018-10-11T03:52:14.579Z,20.40
2018-10-11T03:54:43.177Z,20.90
2018-10-11T03:57:11.505Z,20.93
2018-10-11T03:59:39.842Z,19.23
2018-10-11T04:02:08.168Z,20.67
2018-10-11T04:04:36.508Z,18.43
2018-10-11T04:07:04.815Z,17.63
2018-10-11T04:09:33.175Z,11.63
2018-10-11T04:12:01.492Z,9.70
2018-10-11T04:14:29.824Z,7.63
2018-10-11T04:16:58.128Z,6.40
2018-10-11T04:19:26.448Z,9.57
2018-10-11T04:21:54.771Z,14.37
2018-10-11T04:24:23.192Z,11.50
2018-10-11T04:26:51.508Z,14.40
2018-10-11T04:29:26.596Z,9.17
2018-10-11T04:31:54.957Z,6.43
2018-10-11T04:36:57.873Z,5.83
2018-10-11T04:39:26.198Z,5.63
2018-10-11T04:41:54.509Z,6.63
2018-10-11T04:44:22.882Z,6.10
2018-10-11T04:46:51.193Z,5.70
2018-10-11T04:49:19.516Z,6.10
2018-10-11T04:51:47.844Z,7.27
2018-10-11T04:54:16.181Z,10.80
2018-10-11T04:56:44.488Z,7.30
2018-10-11T04:59:12.779Z,6.37
2018-10-11T05:01:41.121Z,5.97
2018-10-11T05:04:09.445Z,6.50
2018-10-11T05:06:37.771Z,5.90
2018-10-11T05:09:06.783Z,5.50
2018-10-11T05:11:35.124Z,6.13
2018-10-11T05:14:03.455Z,5.60
2018-10-11T05:16:31.772Z,9.83
2018-10-11T05:19:02.176Z,17.27
2018-10-11T05:21:30.541Z,20.20
2018-10-11T05:23:58.856Z,19.57
2018-10-11T05:26:27.196Z,20.70
2018-10-11T05:28:55.514Z,18.27
2018-10-11T05:31:23.868Z,17.80
2018-10-11T05:33:53.477Z,13.97
2018-10-11T05:36:21.805Z,15.67
2018-10-11T05:38:50.123Z,16.10
2018-10-11T05:41:18.464Z,18.03
2018-10-11T05:43:46.835Z,19.17
2018-10-11T05:46:22.141Z,18.80
2018-10-11T05:48:50.643Z,15.17
2018-10-11T05:51:19.928Z,10.60
2018-10-11T05:53:48.262Z,7.90
2018-10-11T05:56:18.423Z,8.67
2018-10-11T05:58:46.864Z,10.73
2018-10-11T06:01:15.215Z,8.97
2018-10-11T06:03:44.570Z,6.70
2018-10-11T06:06:13.085Z,9.20
2018-10-11T06:08:41.416Z,6.70
2018-10-11T06:11:09.787Z,5.87
2018-10-11T06:13:38.368Z,5.00
2018-10-11T06:16:06.721Z,5.00
2018-10-11T06:18:35.156Z,5.20
2018-10-11T06:21:03.495Z,5.33
2018-10-11T06:23:31.807Z,4.70
2018-10-11T06:26:00.133Z,5.97
2018-10-11T06:28:28.464Z,5.07
2018-10-11T06:30:57.043Z,5.20
2018-10-11T06:33:25.457Z,5.27
2018-10-11T06:35:53.841Z,5.40
2018-10-11T06:38:22.156Z,5.30
2018-10-11T06:40:50.507Z,12.47
2018-10-11T06:43:18.835Z,14.43
2018-10-11T06:45:47.326Z,14.83
2018-10-11T06:48:15.656Z,15.13
2018-10-11T06:50:44.187Z,15.83
2018-10-11T06:53:12.512Z,10.67
2018-10-11T06:55:40.863Z,21.23
2018-10-11T06:58:09.189Z,21.83
2018-10-11T07:00:37.563Z,21.13
2018-10-11T07:03:06.242Z,20.60
2018-10-11T07:05:34.582Z,17.27
2018-10-11T07:08:02.901Z,22.13
2018-10-11T07:10:31.240Z,21.80
2018-10-11T07:12:59.565Z,21.23
2018-10-11T07:15:28.076Z,23.73
2018-10-11T07:17:56.385Z,24.43
2018-10-11T07:20:24.720Z,26.77
2018-10-11T07:22:53.047Z,23.97
2018-10-11T07:25:21.399Z,20.50
2018-10-11T07:27:49.736Z,22.70
2018-10-11T07:30:18.053Z,22.93
2018-10-11T07:32:46.396Z,21.97
2018-10-11T07:35:14.770Z,23.90
2018-10-11T07:37:43.056Z,21.63
2018-10-11T07:40:11.410Z,24.37
2018-10-11T07:42:39.724Z,22.70
2018-10-11T07:45:08.057Z,22.30
2018-10-11T07:47:36.461Z,23.00
2018-10-11T07:50:05.139Z,22.10
2018-10-11T07:52:33.466Z,22.80
2018-10-11T07:55:01.785Z,23.37
2018-10-11T07:57:30.151Z,23.30
2018-10-11T07:59:58.478Z,21.20
2018-10-11T08:02:26.796Z,20.03
2018-10-11T08:04:55.106Z,24.23
2018-10-11T08:07:23.496Z,21.77
2018-10-11T08:09:51.781Z,20.50
2018-10-11T08:12:20.108Z,19.10
2018-10-11T08:14:48.424Z,18.90
2018-10-11T08:17:17.205Z,20.20
2018-10-11T08:19:45.169Z,19.40
2018-10-11T08:22:13.444Z,18.77
2018-10-11T08:24:41.821Z,20.33
2018-10-11T08:27:10.946Z,20.50
2018-10-11T08:29:39.224Z,20.47
2018-10-11T08:32:07.569Z,18.87
2018-10-11T08:34:35.884Z,18.57
2018-10-11T08:37:04.214Z,19.30
2018-10-11T08:39:32.508Z,17.70
2018-10-11T08:42:00.839Z,18.80
2018-10-11T08:44:29.173Z,17.70
2018-10-11T08:46:57.504Z,22.87
2018-10-11T08:49:25.808Z,19.10
2018-10-11T08:51:54.136Z,17.87
2018-10-11T08:54:27.813Z,19.40
2018-10-11T08:56:56.149Z,20.37
2018-10-11T08:59:24.522Z,18.13
2018-10-11T09:01:52.813Z,17.73
2018-10-11T09:04:21.140Z,17.80
2018-10-11T09:06:49.480Z,18.10
2018-10-11T09:09:17.787Z,18.97
2018-10-11T09:11:46.126Z,18.33
2018-10-11T09:14:14.440Z,17.77
2018-10-11T09:16:42.776Z,17.83
2018-10-11T09:19:11.087Z,17.27
2018-10-11T09:21:39.414Z,15.10
2018-10-11T09:24:07.745Z,16.63
2018-10-11T09:26:36.084Z,14.30
2018-10-11T09:29:04.407Z,14.83
2018-10-11T09:31:32.762Z,14.97
2018-10-11T09:34:01.109Z,12.70
2018-10-11T09:36:29.800Z,15.67
2018-10-11T09:38:58.156Z,14.90
2018-10-11T09:41:26.575Z,11.47
2018-10-11T09:43:54.945Z,11.47
2018-10-11T09:46:23.311Z,13.70
2018-10-11T09:48:51.710Z,13.33
2018-10-11T09:51:19.968Z,15.37
2018-10-11T09:53:48.303Z,14.73
2018-10-11T09:56:16.608Z,13.73
2018-10-11T09:58:44.948Z,14.53
2018-10-11T10:01:18.620Z,14.53
2018-10-11T10:03:46.944Z,13.70
2018-10-11T10:06:15.259Z,13.50
2018-10-11T10:08:43.766Z,12.70
2018-10-11T10:11:12.080Z,12.37
2018-10-11T10:13:40.404Z,11.27
2018-10-11T10:16:08.721Z,12.63
2018-10-11T10:18:37.043Z,14.00
2018-10-11T10:21:05.447Z,14.23
2018-10-11T10:23:33.747Z,10.87
2018-10-11T10:26:02.066Z,11.83
2018-10-11T10:28:30.394Z,11.23
2018-10-11T10:30:58.706Z,11.43
2018-10-11T10:33:27.055Z,12.23
2018-10-11T10:35:55.353Z,12.23
2018-10-11T10:38:23.857Z,13.47
2018-10-11T10:40:52.411Z,11.67
2018-10-11T10:43:21.012Z,13.07
2018-10-11T10:45:49.335Z,10.30
2018-10-11T10:48:17.664Z,11.63
2018-10-11T10:50:45.979Z,13.37
2018-10-11T10:53:14.304Z,13.80
2018-10-11T10:55:42.600Z,11.00
2018-10-11T10:58:10.921Z,10.87
2018-10-11T11:00:39.228Z,12.70
2018-10-11T11:03:07.796Z,11.57
2018-10-11T11:05:36.199Z,11.23
2018-10-11T11:08:04.517Z,10.00
2018-10-11T11:10:32.811Z,9.43
2018-10-11T11:13:01.159Z,11.90
2018-10-11T11:15:29.467Z,9.90
2018-10-11T11:17:57.788Z,9.67
2018-10-11T11:20:32.472Z,10.40
2018-10-11T11:23:00.796Z,9.33
2018-10-11T11:25:29.104Z,9.77
2018-10-11T11:27:57.419Z,9.40
2018-10-11T11:30:25.716Z,9.33
2018-10-11T11:32:54.044Z,9.93
2018-10-11T11:35:22.339Z,11.33
2018-10-11T11:37:50.655Z,9.77
2018-10-11T11:40:18.960Z,8.13
2018-10-11T11:42:47.293Z,9.43
2018-10-11T11:45:15.639Z,10.60
2018-10-11T11:47:43.993Z,11.30
2018-10-11T11:50:12.301Z,9.20
2018-10-11T11:52:40.624Z,8.50
2018-10-11T11:55:08.916Z,8.07
2018-10-11T11:57:37.340Z,8.40
2018-10-11T12:00:05.768Z,8.70
2018-10-11T12:02:34.669Z,9.17
2018-10-11T12:05:03.037Z,10.80
2018-10-11T12:07:31.377Z,9.00
2018-10-11T12:09:59.780Z,8.60
2018-10-11T12:13:08.823Z,8.23
2018-10-11T12:15:37.946Z,8.27
2018-10-11T12:18:07.249Z,8.83
2018-10-11T12:20:36.822Z,8.77
2018-10-11T12:23:06.128Z,9.77
2018-10-11T12:25:34.792Z,8.87
2018-10-11T12:28:03.109Z,9.50
2018-10-11T12:30:31.661Z,8.77
2018-10-11T12:33:00.006Z,9.17
2018-10-11T12:35:28.839Z,9.17
2018-10-11T12:37:57.162Z,8.37
2018-10-11T12:40:25.461Z,8.53
2018-10-11T12:42:53.798Z,10.13
2018-10-11T12:45:22.685Z,8.50
2018-10-11T12:47:50.953Z,8.60
2018-10-11T12:50:19.268Z,7.10
2018-10-11T12:52:47.556Z,9.07
2018-10-11T12:55:15.888Z,10.37
2018-10-11T12:57:44.187Z,7.80
2018-10-11T13:00:14.881Z,8.93
2018-10-11T13:02:43.246Z,8.23
2018-10-11T13:05:11.580Z,7.37
2018-10-11T13:07:46.512Z,8.37
2018-10-11T13:10:14.845Z,7.30
2018-10-11T13:12:43.168Z,7.70
2018-10-11T13:15:11.483Z,7.40
2018-10-11T13:17:42.814Z,6.80
2018-10-11T13:20:08.674Z,7.40
2018-10-11T13:22:36.964Z,6.93
2018-10-11T13:25:05.395Z,7.33
2018-10-11T13:27:33.686Z,8.57
2018-10-11T13:30:02.002Z,8.93
2018-10-11T13:32:30.295Z,9.17
2018-10-11T13:34:58.610Z,7.40
2018-10-11T13:37:26.920Z,7.97
2018-10-11T13:39:57.690Z,7.87
2018-10-11T13:42:23.569Z,10.53
2018-10-11T13:44:51.897Z,7.83
2018-10-11T13:47:20.245Z,7.57
2018-10-11T13:49:48.513Z,8.07
2018-10-11T13:52:19.284Z,7.20
2018-10-11T13:54:45.149Z,7.47
2018-10-11T13:57:13.453Z,9.33
2018-10-11T13:59:41.769Z,8.20
2018-10-11T14:02:10.071Z,8.17
2018-10-11T14:04:38.468Z,7.50
2018-10-11T14:07:06.744Z,8.67
2018-10-11T14:09:35.059Z,8.50
2018-10-11T14:12:03.361Z,9.47
2018-10-11T14:14:31.682Z,9.30
2018-10-11T14:16:59.971Z,8.67
2018-10-11T14:19:28.287Z,7.27
2018-10-11T14:21:56.595Z,7.90
2018-10-11T14:24:24.917Z,6.20
2018-10-11T14:26:53.203Z,7.20
2018-10-11T14:29:21.523Z,7.70
2018-10-11T14:31:49.833Z,7.77
2018-10-11T14:34:18.248Z,6.87
2018-10-11T14:36:46.575Z,7.30
2018-10-11T14:39:14.903Z,8.70
2018-10-11T14:41:43.224Z,8.17
2018-10-11T14:44:11.574Z,9.40
2018-10-11T14:46:39.882Z,7.90
2018-10-11T14:49:08.224Z,8.37
2018-10-11T14:51:39.786Z,11.03
2018-10-11T14:54:04.882Z,7.57
2018-10-11T14:56:33.208Z,8.80
2018-10-11T14:59:01.545Z,8.00
2018-10-11T15:01:29.851Z,9.30
2018-10-11T15:03:58.176Z,6.90
2018-10-11T15:06:26.502Z,8.67
2018-10-11T15:08:54.821Z,8.17
2018-10-11T15:11:23.297Z,7.83
2018-10-11T15:13:51.487Z,7.87
2018-10-11T15:16:19.823Z,7.63
2018-10-11T15:18:48.171Z,8.07
2018-10-11T15:21:16.602Z,9.97
2018-10-11T15:23:44.914Z,8.30
2018-10-11T15:26:13.248Z,12.00
2018-10-11T15:28:41.557Z,8.57
2018-10-11T15:31:09.868Z,8.37
2018-10-11T15:33:38.167Z,9.90
2018-10-11T15:36:06.948Z,7.70
2018-10-11T15:38:35.248Z,9.47
2018-10-11T15:41:03.566Z,6.10
2018-10-11T15:43:31.911Z,7.37
2018-10-11T15:46:00.223Z,7.03
2018-10-11T15:48:28.531Z,5.50
2018-10-11T15:50:56.839Z,3.93
2018-10-11T15:53:25.131Z,4.93
2018-10-11T15:55:53.451Z,4.20
2018-10-11T15:58:21.765Z,2.63
2018-10-11T16:00:50.105Z,5.47
2018-10-11T16:03:18.496Z,3.50
2018-10-11T16:05:46.955Z,4.00
2018-10-11T16:08:15.144Z,3.87
2018-10-11T16:10:43.464Z,4.20
2018-10-11T16:13:11.756Z,4.10
2018-10-11T16:15:40.076Z,2.60
2018-10-11T16:18:08.367Z,2.83
2018-10-11T16:20:36.686Z,2.87
2018-10-11T16:23:04.985Z,2.50
2018-10-11T16:25:33.302Z,2.67
2018-10-11T16:28:01.614Z,2.13
2018-10-11T16:30:29.963Z,2.57
2018-10-11T16:32:58.279Z,1.77
2018-10-11T16:35:26.912Z,1.70
2018-10-11T16:37:55.210Z,1.60
2018-10-11T16:40:23.522Z,2.00
2018-10-11T16:42:51.830Z,1.90
2018-10-11T16:45:20.162Z,1.90
2018-10-11T16:47:48.466Z,1.73
2018-10-11T16:50:16.775Z,1.93
2018-10-11T16:52:45.105Z,1.97
2018-10-11T16:55:13.419Z,2.07
2018-10-11T16:57:41.721Z,2.10
2018-10-11T17:00:10.035Z,2.47
2018-10-11T17:02:38.345Z,2.10
2018-10-11T17:05:09.593Z,1.80
2018-10-11T17:07:37.888Z,2.17
2018-10-11T17:10:06.461Z,2.37
2018-10-11T17:12:34.765Z,2.20
2018-10-11T17:15:03.084Z,1.80
2018-10-11T17:17:31.392Z,2.00
2018-10-11T17:19:59.692Z,2.50
2018-10-11T17:22:28.009Z,2.20
2018-10-11T17:24:56.309Z,2.00
2018-10-11T17:27:24.633Z,2.10
2018-10-11T17:29:52.997Z,2.00
2018-10-11T17:32:21.328Z,2.27
2018-10-11T17:34:49.612Z,2.50
2018-10-11T17:37:17.991Z,2.40
2018-10-11T17:39:46.302Z,2.50
2018-10-11T17:42:14.681Z,2.47
2018-10-11T17:44:42.979Z,2.70
2018-10-11T17:47:11.292Z,2.20
2018-10-11T17:49:39.583Z,2.47
2018-10-11T17:52:07.905Z,3.33
2018-10-11T17:54:36.199Z,2.63
2018-10-11T17:57:04.509Z,2.47
2018-10-11T17:59:32.803Z,2.20
2018-10-11T18:02:01.111Z,2.30
2018-10-11T18:04:29.400Z,2.63
2018-10-11T18:06:57.788Z,2.27
2018-10-11T18:09:26.087Z,2.60
2018-10-11T18:11:54.404Z,2.50
2018-10-11T18:14:22.748Z,3.00
2018-10-11T18:16:51.085Z,2.50
2018-10-11T18:19:19.393Z,3.20
2018-10-11T18:21:47.741Z,2.80
2018-10-11T18:24:16.023Z,3.63
2018-10-11T18:26:44.350Z,3.00
2018-10-11T18:29:12.683Z,2.87
2018-10-11T18:31:40.993Z,3.70
2018-10-11T18:34:09.300Z,3.30
2018-10-11T18:36:37.632Z,2.90
2018-10-11T18:39:09.945Z,3.93
2018-10-11T18:41:38.310Z,3.30
2018-10-11T18:44:06.705Z,2.47
2018-10-11T18:46:35.060Z,2.93
2018-10-11T18:49:03.400Z,3.13
2018-10-11T18:51:31.731Z,7.57
2018-10-11T18:54:00.074Z,6.87
2018-10-11T18:56:28.425Z,5.40
2018-10-11T18:58:56.730Z,3.83
2018-10-11T19:01:25.045Z,6.37
2018-10-11T19:03:53.387Z,8.63
2018-10-11T19:06:21.720Z,6.43
2018-10-11T19:08:50.048Z,6.00
2018-10-11T19:11:18.398Z,9.60
2018-10-11T19:13:46.700Z,8.47
2018-10-11T19:16:15.032Z,7.23
2018-10-11T19:18:43.340Z,6.10
2018-10-11T19:21:11.760Z,7.83
2018-10-11T19:23:40.080Z,11.97
2018-10-11T19:26:08.620Z,11.83
2018-10-11T19:28:36.927Z,9.57
2018-10-11T19:31:05.370Z,8.97
2018-10-11T19:33:33.584Z,5.73
2018-10-11T19:36:01.888Z,9.67
2018-10-11T19:38:30.212Z,9.60
2018-10-11T19:40:58.523Z,10.20
2018-10-11T19:43:26.862Z,8.20
2018-10-11T19:45:55.214Z,8.57
2018-10-11T19:48:23.608Z,8.57
2018-10-11T19:50:51.871Z,10.60
2018-10-11T19:53:20.201Z,9.20
2018-10-11T19:55:48.505Z,9.90
2018-10-11T19:58:16.831Z,14.47
2018-10-11T20:00:45.140Z,10.77
2018-10-11T20:03:13.484Z,12.00
2018-10-11T20:05:41.909Z,7.33
2018-10-11T20:08:10.317Z,6.60
2018-10-11T20:10:38.567Z,6.73
2018-10-11T20:13:06.916Z,8.17
2018-10-11T20:15:35.213Z,8.23
2018-10-11T20:18:03.905Z,10.83
2018-10-11T20:20:32.077Z,9.03
2018-10-11T20:23:00.397Z,10.03
2018-10-11T20:25:28.704Z,10.93
2018-10-11T20:27:57.037Z,9.73
2018-10-11T20:30:25.347Z,9.37
2018-10-11T20:32:53.672Z,9.83
2018-10-11T20:35:22.220Z,9.80
2018-10-11T20:37:50.555Z,10.53
2018-10-11T20:40:18.865Z,10.13
2018-10-11T20:42:47.467Z,10.47
2018-10-11T20:45:15.795Z,9.63
2018-10-11T20:47:44.128Z,10.40
2018-10-11T20:50:12.433Z,7.23
2018-10-11T20:52:40.747Z,10.90
2018-10-11T20:55:09.070Z,10.43
2018-10-11T20:57:37.410Z,10.07
2018-10-11T21:00:06.433Z,11.90
2018-10-11T21:02:34.784Z,9.07
2018-10-11T21:05:03.113Z,5.83
2018-10-11T21:07:31.449Z,6.83
2018-10-11T21:09:59.778Z,7.57
2018-10-11T21:12:28.112Z,9.60
2018-10-11T21:14:56.421Z,10.80
2018-10-11T21:17:24.829Z,10.10
2018-10-11T21:19:53.163Z,7.23
2018-10-11T21:22:21.482Z,4.80
2018-10-11T21:24:49.800Z,8.50
2018-10-11T21:27:18.124Z,5.13
2018-10-11T21:29:46.434Z,6.03
2018-10-11T21:32:14.764Z,4.77
2018-10-11T21:34:43.063Z,5.87
2018-10-11T21:37:11.384Z,5.20
2018-10-11T21:39:39.716Z,8.13
2018-10-11T21:42:08.035Z,9.53
2018-10-11T21:44:36.422Z,11.53
2018-10-11T21:47:04.735Z,10.87
2018-10-11T21:49:33.065Z,6.87
2018-10-11T21:52:01.367Z,6.63
2018-10-11T21:54:29.709Z,5.73
2018-10-11T21:56:58.029Z,6.40
2018-10-11T21:59:26.365Z,9.10
2018-10-11T22:01:54.679Z,10.47
2018-10-11T22:04:23.007Z,7.83
2018-10-11T22:06:51.316Z,4.60
2018-10-11T22:09:19.644Z,3.73
2018-10-11T22:11:47.959Z,6.27
2018-10-11T22:14:16.283Z,9.97
2018-10-11T22:16:44.609Z,12.03
2018-10-11T22:19:12.932Z,11.57
2018-10-11T22:21:41.244Z,11.63
2018-10-11T22:24:09.576Z,11.57
2018-10-11T22:26:37.875Z,11.93
2018-10-11T22:29:06.211Z,12.40
2018-10-11T22:31:34.541Z,12.83
2018-10-11T22:34:02.880Z,10.23
2018-10-11T22:36:31.203Z,11.70
2018-10-11T22:38:59.545Z,10.03
2018-10-11T22:41:27.875Z,11.07
2018-10-11T22:43:56.292Z,9.50
2018-10-11T22:46:24.727Z,10.60
2018-10-11T22:48:53.049Z,8.33
2018-10-11T22:51:21.356Z,7.97
2018-10-11T22:53:49.695Z,9.57
2018-10-11T22:56:21.553Z,11.40
2018-10-11T22:58:51.079Z,13.27
2018-10-11T23:01:19.421Z,12.20
2018-10-11T23:03:47.748Z,12.80
2018-10-11T23:06:16.071Z,12.03
2018-10-11T23:08:44.448Z,7.73
2018-10-11T23:11:12.757Z,11.47
2018-10-11T23:13:41.548Z,9.90
2018-10-11T23:16:10.728Z,9.40
2018-10-11T23:18:39.749Z,10.87
2018-10-11T23:21:08.053Z,11.40
2018-10-11T23:23:36.524Z,11.90
2018-10-11T23:26:04.854Z,14.63
2018-10-11T23:28:33.189Z,10.07
2018-10-11T23:31:01.500Z,12.03
2018-10-11T23:33:29.847Z,5.50
2018-10-11T23:35:58.159Z,4.67
2018-10-11T23:38:26.486Z,7.03
2018-10-11T23:40:54.791Z,5.67
2018-10-11T23:43:23.120Z,7.23
2018-10-11T23:45:51.446Z,5.83
2018-10-11T23:48:19.772Z,4.63
2018-10-11T23:50:48.080Z,3.83
2018-10-11T23:53:16.411Z,4.03
2018-10-11T23:55:44.710Z,4.40
2018-10-11T23:58:13.053Z,4.83
